Terminal Aerodrome Forecast
Issued by NWS

Home | Current Version | Previous Version | Text Only | Print | Product List | Glossary Off
Versions: 1 2 3 4 5 6 7 8 9 10 11 12 13 14 15 16 17 18 19 20 21 22 23 24 25 26

000
FTUS43 KBIS 291500 AAA
TAFJMS
TAF AMD
KJMS 291513Z 2915/3012 18004KT P6SM BKN020
     FM291700 18010KT P6SM SCT120
     FM300500 26007KT P6SM SCT060
     FM301000 32011KT P6SM BKN020=

USA.gov is the U.S. government's official web portal to all federal, state and local government web resources and services.